»·PEaware :: DAL1698 KBIL-KSLC

DAL1698 :: KBIL-KSLC

FLIGHT INFORMATION

Flight Status: Arrived
Operator:
Delta Air Lines
More flights by this operator :: More flights under this callsign
Pilot: Andre N. (13929)
Aircraft: AIRBUS A319
(A319)
More flights by this aircraft type
Origin: KBIL Billings Logan Intl
United States
Destination: KSLC Salt Lake City Intl
United States
More flights between these airports :: More routes between these airports
Route: +BIL5 NELKS SYMPL JAC NORDK5
File this flight plan on PilotEdge
Remarks:
Altitude:
(Current/Filed)
38,000ft
Speed:
(Current/Filed)
440kts
Departed: 02-Apr-18 07:34 AM
Arrived: 02-Apr-18 08:48 AM
Distance/Time
Traveled:
336nm/1:14
Distance/Time
To Go:
Arrived

Flight Plot

Page will automatically refresh every two minutes.

Flight plan parsing failed; only flown route is shown


Map Options




Map Legend


Flown Route
Filed Route
Departure Airport
Arrival Airport
Navaid (VOR, NDB)
Fix

Horizontal Profiles

Position Reports

Time Latitude Longitude Heading Altitude Ground
Speed
02-Apr-18 07:00 45.804261 -108.538134 179 3661ft 0kts
02-Apr-18 07:01 45.804261 -108.538134 179 3661ft 0kts
02-Apr-18 07:02 45.804261 -108.538134 179 3661ft 0kts
02-Apr-18 07:03 45.804261 -108.538134 179 3661ft 0kts
02-Apr-18 07:04 45.804261 -108.538134 179 3661ft 0kts
02-Apr-18 07:05 45.804261 -108.538134 179 3661ft 0kts
02-Apr-18 07:06 45.804261 -108.538134 179 3661ft 0kts
02-Apr-18 07:07 45.804261 -108.538134 179 3661ft 0kts
02-Apr-18 07:08 45.804261 -108.538134 179 3661ft 0kts
02-Apr-18 07:09 45.804261 -108.538134 179 3661ft 0kts
02-Apr-18 07:10 45.804261 -108.538134 179 3661ft 0kts
02-Apr-18 07:11 45.804261 -108.538134 179 3661ft 0kts
02-Apr-18 07:12 45.804261 -108.538134 179 3661ft 0kts
02-Apr-18 07:13 45.804261 -108.538134 179 3661ft 0kts
02-Apr-18 07:14 45.804261 -108.538134 179 3661ft 0kts
02-Apr-18 07:15 45.804261 -108.538134 179 3661ft 0kts
02-Apr-18 07:16 45.804261 -108.538134 179 3661ft 0kts
02-Apr-18 07:17 45.804261 -108.538134 179 3661ft 0kts
02-Apr-18 07:18 45.804261 -108.538134 179 3661ft 0kts
02-Apr-18 07:19 45.804261 -108.538134 179 3661ft 0kts
02-Apr-18 07:20 45.804261 -108.538134 179 3661ft 0kts
02-Apr-18 07:21 45.804261 -108.538134 179 3661ft 0kts
02-Apr-18 07:22 45.804261 -108.538134 179 3661ft 0kts
02-Apr-18 07:23 45.804261 -108.538134 179 3661ft 0kts
02-Apr-18 07:24 45.804267 -108.538154 171 3661ft 0kts
02-Apr-18 07:25 45.804774 -108.538246 161 3661ft 2kts
02-Apr-18 07:26 45.805183 -108.538509 153 3661ft 0kts
02-Apr-18 07:27 45.805183 -108.538508 153 3661ft 0kts
02-Apr-18 07:28 45.805183 -108.538508 153 3661ft 0kts
02-Apr-18 07:29 45.806163 -108.538236 295 3661ft 11kts
02-Apr-18 07:30 45.809064 -108.548607 295 3661ft 39kts
02-Apr-18 07:31 45.811461 -108.555262 359 3661ft 0kts
02-Apr-18 07:32 45.812438 -108.553842 111 3661ft 17kts
02-Apr-18 07:33 45.800184 -108.510382 107 4568ft 169kts
02-Apr-18 07:34 45.781124 -108.443337 120 6739ft 220kts
02-Apr-18 07:35 45.722413 -108.462365 236 9084ft 294kts
02-Apr-18 07:36 45.673805 -108.562655 234 11418ft 346kts
02-Apr-18 07:37 45.614556 -108.680283 237 13833ft 384kts
02-Apr-18 07:38 45.552390 -108.802992 239 16908ft 386kts
02-Apr-18 07:39 45.491670 -108.922662 238 20102ft 372kts
02-Apr-18 07:40 45.432776 -109.037993 237 22660ft 369kts
02-Apr-18 07:41 45.372301 -109.155747 237 24657ft 374kts
02-Apr-18 07:42 45.301261 -109.264674 227 26255ft 389kts
02-Apr-18 07:43 45.220983 -109.366906 227 27671ft 398kts
02-Apr-18 07:44 45.134475 -109.466242 221 28917ft 412kts
02-Apr-18 07:45 45.038396 -109.549780 219 30447ft 411kts
02-Apr-18 07:46 44.941814 -109.632801 219 31726ft 410kts
02-Apr-18 07:47 44.849915 -109.711343 218 32796ft 412kts
02-Apr-18 07:48 44.763965 -109.784281 219 33865ft 410kts
02-Apr-18 07:49 44.669943 -109.863961 218 34822ft 411kts
02-Apr-18 07:50 44.573489 -109.945334 218 35632ft 412kts
02-Apr-18 07:51 44.475897 -110.027339 218 36299ft 413kts
02-Apr-18 07:52 44.377976 -110.109299 218 36860ft 415kts
02-Apr-18 07:53 44.279816 -110.191131 217 37336ft 416kts
02-Apr-18 07:54 44.181367 -110.272881 217 37531ft 418kts
02-Apr-18 07:55 44.084743 -110.352702 218 37533ft 407kts
02-Apr-18 07:56 43.989243 -110.431442 218 37533ft 407kts
02-Apr-18 07:57 43.897381 -110.506869 218 37531ft 407kts
02-Apr-18 07:58 43.808816 -110.578909 218 37532ft 407kts
02-Apr-18 07:59 43.713783 -110.656309 217 37550ft 407kts
02-Apr-18 08:00 43.621275 -110.731693 217 37580ft 408kts
02-Apr-18 08:01 43.521556 -110.804236 215 37587ft 411kts
02-Apr-18 08:02 43.422577 -110.875156 215 37587ft 411kts
02-Apr-18 08:03 43.323309 -110.946233 215 37587ft 410kts
02-Apr-18 08:04 43.223674 -111.017342 215 37590ft 410kts
02-Apr-18 08:05 43.123987 -111.088238 215 37629ft 410kts
02-Apr-18 08:06 43.024914 -111.158692 215 37640ft 410kts
02-Apr-18 08:07 42.932262 -111.240062 231 37640ft 395kts
02-Apr-18 08:08 42.878573 -111.355607 247 37635ft 385kts
02-Apr-18 08:09 42.833061 -111.481709 247 37642ft 392kts
02-Apr-18 08:10 42.785916 -111.613250 247 37640ft 393kts
02-Apr-18 08:11 42.739476 -111.739291 242 37619ft 396kts
02-Apr-18 08:12 42.660535 -111.841224 215 37623ft 417kts
02-Apr-18 08:13 42.547845 -111.881903 195 36586ft 437kts
02-Apr-18 08:14 42.429953 -111.902093 195 34484ft 431kts
02-Apr-18 08:15 42.314225 -111.922088 194 32386ft 442kts
02-Apr-18 08:16 42.192746 -111.942701 194 30235ft 447kts
02-Apr-18 08:17 42.071102 -111.963579 194 28008ft 445kts
02-Apr-18 08:18 41.952050 -111.983498 194 25458ft 429kts
02-Apr-18 08:19 41.853513 -111.999843 194 23218ft 416kts
02-Apr-18 08:20 41.772116 -112.013180 195 21402ft 408kts
02-Apr-18 08:21 41.675116 -112.028381 195 19181ft 396kts
02-Apr-18 08:22 41.567859 -112.045151 194 18680ft 386kts
02-Apr-18 08:23 41.471041 -112.061320 198 17746ft 342kts
02-Apr-18 08:24 41.379608 -112.081699 197 15809ft 332kts
02-Apr-18 08:25 41.294181 -112.100028 198 14935ft 304kts
02-Apr-18 08:26 41.212082 -112.117961 198 14851ft 298kts
02-Apr-18 08:27 41.135339 -112.134422 198 13940ft 269kts
02-Apr-18 08:28 41.063633 -112.144703 182 12841ft 265kts
02-Apr-18 08:29 40.994341 -112.129949 175 11232ft 247kts
02-Apr-18 08:30 40.932931 -112.116599 171 10960ft 216kts
02-Apr-18 08:31 40.876012 -112.105285 171 10952ft 216kts
02-Apr-18 08:32 40.821168 -112.095054 173 10963ft 216kts
02-Apr-18 08:33 40.763586 -112.086409 173 10963ft 216kts
02-Apr-18 08:34 40.705365 -112.077664 173 10963ft 216kts
02-Apr-18 08:35 40.646073 -112.068750 173 10963ft 216kts
02-Apr-18 08:36 40.587628 -112.059956 173 10963ft 218kts
02-Apr-18 08:37 40.527986 -112.050534 173 10986ft 217kts
02-Apr-18 08:38 40.468734 -112.039875 162 10982ft 215kts
02-Apr-18 08:39 40.455370 -111.973755 81 9736ft 212kts
02-Apr-18 08:40 40.492242 -111.934816 345 9000ft 211kts
02-Apr-18 08:41 40.548456 -111.946701 354 8089ft 208kts
02-Apr-18 08:42 40.605269 -111.953304 354 7319ft 206kts
02-Apr-18 08:43 40.656313 -111.959291 354 6569ft 160kts
02-Apr-18 08:44 40.696465 -111.964129 353 5724ft 144kts
02-Apr-18 08:45 40.735690 -111.968529 354 5036ft 143kts
02-Apr-18 08:46 40.774011 -111.973058 354 4300ft 141kts
02-Apr-18 08:47 40.792117 -111.976164 289 4236ft 8kts
02-Apr-18 08:48 40.792148 -111.976378 274 4236ft 0kts
02-Apr-18 08:49 40.791937 -111.979950 264 4236ft 13kts
02-Apr-18 08:50 40.789920 -111.980209 132 4236ft 11kts
02-Apr-18 08:51 40.788980 -111.979111 140 4236ft 0kts

Navigation Log

Ident Type
Flight plan parsing failed, navigation log unavailable